Terminal Aerodrome Forecast
Issued by NWS

Home | Current Version | Previous Version | Text Only | Print | Product List | Glossary On
Versions: 1 2 3 4 5 6 7 8 9 10 11 12 13 14 15 16 17 18 19 20 21
000
FTUS45 KCYS 201148 CCA
TAFRWL
TAF COR
KRWL 201148Z 2012/2112 24012KT P6SM VCSH BKN009 OVC100
     FM201300 25012KT 4SM BR BKN007 OVC035
     FM201600 25014G23KT P6SM OVC050
     FM202100 24009KT P6SM BKN250=

USA.gov is the U.S. government's official web portal to all federal, state and local government web resources and services.